This is the latest recevied weather packets stored in our database for station/object 9M4RBN-3. If no packets are shown the sender has not sent any weather packets the latest 10 day(s).
| Time | Temp. | Humidity | Pressure | Rain* | Wind** | Luminosity | Snow |
|---|---|---|---|---|---|---|---|
| 1787917748 | 27.78° C | 64% | 1016.3 hPa | - | - | - | - |
| 1787916882 | 27.22° C | 73% | 1016 hPa | - | - | - | - |
| 1787916848 | 27.22° C | 73% | 1016 hPa | - | - | - | - |
| 1787915948 | 26.67° C | 70% | 1016 hPa | - | - | - | - |
| 1787915048 | 25.56° C | 51% | 1015.8 hPa | - | - | - | - |
| 1787914148 | 25.56° C | 41% | 1015.6 hPa | - | - | - | - |
| 1787913248 | 25.56° C | 40% | 1015.6 hPa | - | - | - | - |
| 1787912348 | 25.56° C | 39% | 1015.3 hPa | - | - | - | - |
| 1787911448 | 26.11° C | 39% | 1015.1 hPa | - | - | - | - |
| 1787910548 | 26.11° C | 39% | 1015.4 hPa | - | - | - | - |
| 1787909648 | 26.11° C | 40% | 1015.5 hPa | - | - | - | - |
| 1787908747 | 26.67° C | 41% | 1014.9 hPa | - | - | - | - |
| 1787907847 | 27.22° C | 46% | 1015.1 hPa | - | - | - | - |
| 1787906947 | 27.78° C | 58% | 1015.3 hPa | - | - | - | - |
| 1787906047 | 26.67° C | 49% | 1015.3 hPa | - | - | - | - |
| 1787905147 | 26.67° C | 49% | 1015.2 hPa | - | - | - | - |
| 1787904247 | 26.67° C | 51% | 1015.2 hPa | - | - | - | - |
| 1787903347 | 26.67° C | 51% | 1015.6 hPa | - | - | - | - |
| 1787902447 | 26.67° C | 51% | 1015.6 hPa | - | - | - | - |
| 1787901547 | 26.67° C | 51% | 1015.7 hPa | - | - | - | - |
| 1787900647 | 26.11° C | 53% | 1015.8 hPa | - | - | - | - |
| 1787899747 | 26.11° C | 53% | 1016.1 hPa | - | - | - | - |
| 1787898881 | 26.11° C | 53% | 1016.4 hPa | - | - | - | - |
| 1787898847 | 26.11° C | 53% | 1016.4 hPa | - | - | - | - |
| 1787897947 | 26.11° C | 53% | 1016.5 hPa | - | - | - | - |
* Rain since midnight (hover to see other rain measurements)
** Current wind speed in m/s (hover to see current wind gust speed)